Terminal Aerodrome Forecast
Issued by NWS

Home | Current Version | Previous Version | Text Only | Print | Product List | Glossary On
Versions: 1 2 3 4 5 6 7 8 9 10 11 12 13
000
FTUS44 KTSA 280100 AAB
TAFMLC
TAF AMD
KMLC 280105Z 2801/2824 36008KT P6SM BKN040
     FM280300 36008KT P6SM SCT025 OVC100
     FM280600 34005KT P6SM BKN250=

USA.gov is the U.S. government's official web portal to all federal, state and local government web resources and services.